ニウエ国際空港の過去48時間の天気

ニウエ国際空港 (Alofi / Niue)

現在時刻: 12/7 23:20 -11 (12/8 10:20 UTC) 以下の時間は現地時間です。

過去48時間のMETAR気象情報
時間 風向 風速(m/s) 視程 気温(℃) 湿度(%) 気圧(hPa) 天気現象
7 23:00 南東 5 - 24 89 1012
7 22:00 南東 4 - 25 83 1011
7 21:00 東南東 4 - 24 89 1011
7 20:00 東南東 5 - 24 89 1011
7 19:00 東南東 4 - 25 83 1010
7 18:00 東南東 5 - 26 79 1010
7 17:00 東南東 6 - 26 74 1009
7 16:00 東南東 7 10km以上 27 70 1009
7 15:00 東南東 6 10km以上 26 74 1010
7 14:00 東南東 7 10km以上 26 74 1010
7 13:00 東南東 8 10km以上 27 70 1010
7 12:00 東南東 8 10km以上 27 70 1011
7 11:00 東南東 7 10km以上 27 74 1011
7 10:00 東南東 8 10km以上 27 74 1011
7 09:00 東南東 7 10km以上 26 79 1012
7 08:00 東南東 6 - 25 83 1012
7 07:00 東南東 5 - 24 89 1012
7 06:00 東南東 5 - 23 94 1011
7 05:00 5 - 23 94 1011
7 04:00 4 - 23 89 1011
7 03:00 5 - 24 89 1010
7 02:00 5 - 24 89 1010
7 01:00 東南東 4 - 24 83 1011
7 00:00 5 - 23 94 1011
6 23:00 5 - 24 94 1011
6 22:00 東南東 6 - 24 94 1011
6 21:00 東南東 5 - 24 94 1011
6 20:00 5 - 24 94 1011
6 19:00 東南東 5 - 24 94 1011
6 18:00 南東 4 - 23 94 1010
6 17:00 南東 7 - 23 94 1010
6 16:00 東南東 4 10km以上 24 94 - 弱いしゅう雨
6 15:00 5 10km以上 25 89 1010 弱い霧雨
6 14:00 南東 5 10km以上 25 89 1010
6 13:00 東南東 7 10km以上 24 94 1010 弱い霧雨
6 12:00 東南東 7 10km以上 27 74 1010
6 11:00 南東 5 10km以上 26 84 - 弱いしゅう雨
6 10:00 東南東 6 10km以上 26 84 1011 霧雨
6 09:00 東南東 7 10km以上 25 89 - 弱いしゅう雨
6 08:00 東南東 7 10km以上 25 89 1011
6 07:00 南東 5 10km以上 25 78 1010
6 06:00 南東 4 10km以上 24 89 1009 弱いしゅう雨
6 05:00 東南東 4 - 24 94 1009
6 04:00 南東 5 10km以上 24 94 1009
6 03:00 東南東 3 - 23 94 1009
6 02:00 東南東 4 10km以上 24 94 1009
6 01:00 南東 3 10km以上 24 94 1010
6 00:00 東南東 4 10km以上 24 94 1010
NIUE 081000Z AUTO 13010KT // 24/22 Q1012
NIUE 080900Z AUTO 13008KT // 25/22 Q1011
NIUE 080800Z AUTO 12007KT // 24/22 Q1011
NIUE 080700Z AUTO 12009KT // 24/22 Q1011
NIUE 080600Z AUTO 11008KT // 25/22 Q1010
NIUE 080500Z AUTO 11010KT // 26/22 Q1010
NIUE 080400Z AUTO 12012KT // 26/21 Q1009
NIUE 080300Z 11014KT 9999 SCT018 BKN030 27/21 Q1009
NIUE 080200Z 11012KT 9999 SCT018 BKN030 26/21 Q1010
NIUE 080100Z 12013KT 9999 SCT018 BKN030 OVC100 26/21 Q1010
NIUE 080000Z 12015KT 9999 SCT018 BKN030 27/21 Q1010
NIUE 072300Z 12015KT 9999 SCT018 BKN030 27/21 Q1011
NIUE 072200Z 11014KT 9999 SCT018 BKN030 27/22 Q1011
NIUE 072100Z 11015KT 9999 SCT018 BKN030 27/22 Q1011
NIUE 072000Z 11013KT 9999 SCT018 BKN030 26/22 Q1012
NIUE 071900Z AUTO 11011KT // 25/22 Q1012
NIUE 071800Z AUTO 12009KT // 24/22 Q1012
NIUE 071700Z AUTO 11009KT // 23/22 Q1011
NIUE 071600Z AUTO 10009KT // 23/22 Q1011
NIUE 071500Z AUTO 09008KT // 23/21 Q1011
NIUE 071400Z AUTO 09009KT // 24/22 Q1010
NIUE 071300Z AUTO 10010KT // 24/22 Q1010
NIUE 071200Z AUTO 12008KT // 24/21 Q1011
NIUE 071100Z AUTO 10009KT // 23/22 Q1011
NIUE 071000Z AUTO 10009KT // 24/23 Q1011
NIUE 070900Z AUTO 12011KT // 24/23 Q1011
NIUE 070800Z AUTO 12010KT // 24/23 Q1011
NIUE 070700Z AUTO 10010KT // 24/23 Q1011
NIUE 070600Z AUTO 11009KT // 24/23 Q1011
NIUE 070500Z AUTO 13008KT // 23/22 Q1010
NIUE 070400Z AUTO 13013KT // 23/22 Q1010
NIUE 070300Z 11008KT 9999 -SHRA SCT017 BKN029 OVC100 24/23 Q101 0
NIUE 070200Z 10010KT 9999 -DZ SCT017 BKN029 OVC100 25/23 Q1010
NIUE 070100Z 13010KT 9999 SCT018 BKN030 OVC100 25/23 Q1010 RMK: VCSH TO ESE
NIUE 070000Z 12014KT 9999 -DZ SCT018 BKN030 BKN100 24/23 Q1010
NIUE 062300Z 12014KT 9999 SCT018 BKN030 OVC100 27/22 Q1010 RMK VCSH TO THE E
NIUE 062200Z 14010KT 9999 -SHRA SCT018 BKN030 BKN100 26/23 Q101 0
NIUE 062100Z 12011KT 9999 DZ SCT018 BKN030 BKN100 26/23 Q1011
NIUE 062000Z 12013KT 9999 -SHRA SCT018 BKN030 BKN100 25/23 Q101 1
NIUE 061900Z 11014KT 9999 SCT018 BKN030 25/23 Q1011
NIUE 061800Z 13009KT 9999 FEW018 BKN030 25/21 Q1010 RMK VCSH TO THE SOUTH
NIUE 061700Z 13008KT 9999 -SHRA SCT018 BKN030 24/22 Q1009
NIUE 061600Z AUTO 12008KT // 24/23 Q1009
NIUE 061500Z 13009KT 9999 SCT018 SCT030 BKN110 24/23 Q1009
NIUE 061400Z AUTO 11006KT // 23/22 Q1009
NIUE 061300Z 12008KT 9999 SCT018 BKN030 BKN100 24/23 Q1009 RESHRA
NIUE 061200Z 13006KT 9999 SCT018 SCT030 BKN100 24/23 Q1010
NIUE 061100Z 12008KT 9999 SCT018 BKN030 OVC100 24/23 Q1010